Time;durP1;ratioP1;P1;durP2;ratioP2;P2;SDS_P1;SDS_P2;PMS_P1;PMS_P2;Temp;Humidity;BMP_temperature;BMP_pressure;BME280_temperature;BME280_humidity;BME280_pressure;Samples;Min_cycle;Max_cycle;Signal;HPM_P1;HPM_P2
2022/04/22 00:00:07;;;;;;;20.58;13.85;;;;;;;;;;4965848;28;20038;-82
2022/04/22 00:03:36;;;;;;;19.15;13.85;;;;;;;;;;4974944;28;20050;-81
2022/04/22 00:06:53;;;;;;;19.90;12.48;;;;;;;;;;4958326;28;20470;-81
2022/04/22 00:10:01;;;;;;;13.98;8.73;;;;;;;;;;4982025;28;20042;-80
2022/04/22 00:13:07;;;;;;;23.15;10.52;;;;;;;;;;4969460;28;20047;-80
2022/04/22 00:16:11;;;;;;;11.48;9.10;;;;;;;;;;4982993;28;20482;-81
2022/04/22 00:19:03;;;;;;;19.35;11.82;;;;;;;;;;4967312;28;20047;-81
2022/04/22 00:21:49;;;;;;;15.90;11.18;;;;;;;;;;4967381;28;20043;-82
2022/04/22 00:25:07;;;;;;;12.10;8.73;;;;;;;;;;4953694;28;20043;-83
2022/04/22 00:28:06;;;;;;;8.20;7.32;;;;;;;;;;4966566;28;20055;-82
2022/04/22 00:31:02;;;;;;;13.23;9.98;;;;;;;;;;4966061;28;20050;-82
2022/04/22 00:34:11;;;;;;;13.52;9.35;;;;;;;;;;4960144;28;20055;-82
2022/04/22 00:36:57;;;;;;;14.27;10.25;;;;;;;;;;4964663;28;20051;-82
2022/04/22 00:40:22;;;;;;;10.98;8.43;;;;;;;;;;4979312;28;20042;-81
2022/04/22 00:43:25;;;;;;;13.55;10.93;;;;;;;;;;4965682;28;20043;-79
2022/04/22 00:46:42;;;;;;;14.27;9.52;;;;;;;;;;4970746;28;20486;-81
2022/04/22 00:49:33;;;;;;;11.45;8.18;;;;;;;;;;4970162;28;20050;-82
2022/04/22 00:52:30;;;;;;;13.30;9.32;;;;;;;;;;4970660;28;20050;-82
2022/04/22 00:59:05;;;;;;;8.25;6.13;;;;;;;;;;4936327;28;20047;-82
2022/04/22 01:01:56;;;;;;;8.48;6.93;;;;;;;;;;4946264;28;20051;-82
2022/04/22 01:11:27;;;;;;;11.15;7.22;;;;;;;;;;4987364;28;20051;-82
2022/04/22 01:14:26;;;;;;;7.57;4.97;;;;;;;;;;4966458;28;20469;-82
2022/04/22 01:17:16;;;;;;;9.35;5.47;;;;;;;;;;4958681;28;20030;-82
2022/04/22 01:20:03;;;;;;;6.68;5.38;;;;;;;;;;4969799;28;20054;-83
2022/04/22 01:22:51;;;;;;;14.60;7.70;;;;;;;;;;4949957;28;20525;-82
2022/04/22 01:26:06;;;;;;;12.25;7.68;;;;;;;;;;4977834;28;20046;-81
2022/04/22 01:28:55;;;;;;;6.40;4.78;;;;;;;;;;4978140;28;20051;-82
2022/04/22 01:31:43;;;;;;;9.05;6.30;;;;;;;;;;4969500;28;20489;-81
2022/04/22 01:34:34;;;;;;;7.35;3.58;;;;;;;;;;4977903;28;20039;-82
2022/04/22 01:37:19;;;;;;;9.05;6.78;;;;;;;;;;4977217;28;20050;-81
2022/04/22 01:40:13;;;;;;;15.43;5.18;;;;;;;;;;4976730;28;20482;-82
2022/04/22 01:42:58;;;;;;;6.55;5.20;;;;;;;;;;4979075;28;20051;-81
2022/04/22 01:45:44;;;;;;;9.18;4.85;;;;;;;;;;4984366;28;20393;-83
2022/04/22 01:48:44;;;;;;;5.82;3.67;;;;;;;;;;4969783;28;20494;-80
2022/04/22 01:51:30;;;;;;;5.05;3.97;;;;;;;;;;4969169;28;20047;-80
2022/04/22 01:54:20;;;;;;;7.60;4.75;;;;;;;;;;4962888;28;20046;-82
2022/04/22 01:57:16;;;;;;;7.40;3.80;;;;;;;;;;4983709;28;20054;-81
2022/04/22 02:00:22;;;;;;;5.82;4.38;;;;;;;;;;4983601;28;20046;-82
2022/04/22 02:03:16;;;;;;;7.57;4.07;;;;;;;;;;4956795;28;20046;-81
2022/04/22 02:06:07;;;;;;;10.52;3.63;;;;;;;;;;4983021;28;20046;-83
2022/04/22 02:08:56;;;;;;;7.28;3.78;;;;;;;;;;4969374;28;20035;-82
2022/04/22 02:11:45;;;;;;;6.60;4.38;;;;;;;;;;4969097;28;20046;-81
2022/04/22 02:14:31;;;;;;;8.98;5.10;;;;;;;;;;4983378;28;20485;-81
2022/04/22 02:17:30;;;;;;;6.20;3.08;;;;;;;;;;4969269;28;20038;-81
2022/04/22 02:20:18;;;;;;;10.27;5.03;;;;;;;;;;4976386;28;20043;-80
2022/04/22 02:23:05;;;;;;;8.63;5.68;;;;;;;;;;4983483;28;20050;-79
2022/04/22 02:25:54;;;;;;;9.07;5.55;;;;;;;;;;4976698;28;20482;-82
2022/04/22 02:28:39;;;;;;;6.57;3.60;;;;;;;;;;4977557;28;20046;-80
2022/04/22 02:31:26;;;;;;;7.95;5.65;;;;;;;;;;4977471;28;20493;-81
2022/04/22 02:34:11;;;;;;;6.07;4.68;;;;;;;;;;4982790;28;20402;-82
2022/04/22 02:37:06;;;;;;;7.22;4.35;;;;;;;;;;4962964;28;20050;-79
2022/04/22 02:39:51;;;;;;;8.93;5.05;;;;;;;;;;4976425;28;20390;-80
2022/04/22 02:45:41;;;;;;;8.82;5.50;;;;;;;;;;4976728;28;20051;-82
2022/04/22 02:48:42;;;;;;;5.35;4.50;;;;;;;;;;4967845;28;20046;-81
2022/04/22 02:51:38;;;;;;;9.02;4.55;;;;;;;;;;4954401;28;20051;-81
2022/04/22 02:54:23;;;;;;;8.32;5.05;;;;;;;;;;4967943;28;20046;-81
2022/04/22 02:57:09;;;;;;;4.78;3.65;;;;;;;;;;4967814;28;20051;-81
2022/04/22 02:59:55;;;;;;;7.78;5.38;;;;;;;;;;4982928;28;20050;-81
2022/04/22 03:02:44;;;;;;;6.55;4.18;;;;;;;;;;4976616;28;20043;-84
2022/04/22 03:05:34;;;;;;;8.32;5.53;;;;;;;;;;4976025;28;20042;-82
2022/04/22 03:08:23;;;;;;;7.47;4.78;;;;;;;;;;4967636;28;20050;-81
2022/04/22 03:11:08;;;;;;;9.27;4.22;;;;;;;;;;4977719;28;20046;-81
2022/04/22 03:13:53;;;;;;;6.82;4.25;;;;;;;;;;4961898;28;20421;-81
2022/04/22 03:16:42;;;;;;;6.45;3.85;;;;;;;;;;4976327;28;20038;-82
2022/04/22 03:19:28;;;;;;;9.45;4.63;;;;;;;;;;4975906;28;20039;-81
2022/04/22 03:22:27;;;;;;;6.00;3.33;;;;;;;;;;4982200;28;20051;-81
2022/04/22 03:25:13;;;;;;;4.68;3.05;;;;;;;;;;4982026;28;20055;-81
2022/04/22 03:27:58;;;;;;;7.60;4.30;;;;;;;;;;4968916;28;20034;-82
2022/04/22 03:30:48;;;;;;;7.05;4.35;;;;;;;;;;4973147;28;20058;-82
2022/04/22 03:33:48;;;;;;;5.70;3.03;;;;;;;;;;4973243;28;20043;-81
2022/04/22 03:36:55;;;;;;;5.75;3.47;;;;;;;;;;4968495;28;20051;-79
2022/04/22 03:39:40;;;;;;;6.07;4.05;;;;;;;;;;4965815;28;20051;-79
2022/04/22 03:42:43;;;;;;;5.25;3.75;;;;;;;;;;4980161;28;20046;-81
2022/04/22 03:45:33;;;;;;;5.63;3.22;;;;;;;;;;4955379;28;20485;-82
2022/04/22 03:48:22;;;;;;;5.40;4.78;;;;;;;;;;4961082;28;20046;-80
2022/04/22 03:51:16;;;;;;;5.55;3.72;;;;;;;;;;4976306;28;20054;-79
2022/04/22 03:54:04;;;;;;;4.93;3.33;;;;;;;;;;4954095;28;20047;-82
2022/04/22 04:00:41;;;;;;;4.40;3.05;;;;;;;;;;4976595;28;20398;-81
2022/04/22 04:03:36;;;;;;;4.00;3.05;;;;;;;;;;4978604;28;20474;-81
2022/04/22 04:06:23;;;;;;;4.93;3.35;;;;;;;;;;4959049;28;20046;-82
2022/04/22 04:16:04;;;;;;;4.28;3.10;;;;;;;;;;4966779;28;20051;-82
2022/04/22 04:23:14;;;;;;;5.95;3.33;;;;;;;;;;4966757;28;20042;-81
2022/04/22 04:25:08;;;;;;;3.28;2.22;;;;;;;;;;4966420;28;20059;-81
2022/04/22 04:28:00;;;;;;;5.75;2.83;;;;;;;;;;4974329;28;20038;-81
2022/04/22 04:30:46;;;;;;;9.27;4.03;;;;;;;;;;4974791;28;20043;-80
2022/04/22 04:33:31;;;;;;;4.70;3.70;;;;;;;;;;4981793;28;20046;-81
2022/04/22 04:36:20;;;;;;;5.10;3.50;;;;;;;;;;4950787;28;20039;-81
2022/04/22 04:39:08;;;;;;;5.18;3.08;;;;;;;;;;4976440;28;20051;-81
2022/04/22 04:42:19;;;;;;;8.10;4.15;;;;;;;;;;4954891;28;20043;-82
2022/04/22 04:45:17;;;;;;;5.47;3.38;;;;;;;;;;4960984;28;20502;-81
2022/04/22 04:48:39;;;;;;;4.57;3.00;;;;;;;;;;4963111;28;20055;-81
2022/04/22 04:51:38;;;;;;;7.10;4.45;;;;;;;;;;4967226;28;20046;-81
2022/04/22 04:55:16;;;;;;;9.60;3.85;;;;;;;;;;4980850;28;20050;-82
2022/04/22 04:58:20;;;;;;;6.47;3.75;;;;;;;;;;4980911;28;20485;-81
2022/04/22 05:01:29;;;;;;;4.65;2.13;;;;;;;;;;4973984;28;20043;-81
2022/04/22 05:04:14;;;;;;;6.78;3.75;;;;;;;;;;4966103;28;20043;-80
2022/04/22 05:06:59;;;;;;;7.20;4.60;;;;;;;;;;4974382;28;20043;-82
2022/04/22 05:09:45;;;;;;;12.10;6.28;;;;;;;;;;4980535;28;20054;-81
2022/04/22 05:12:30;;;;;;;12.18;5.47;;;;;;;;;;4974233;28;20051;-80
2022/04/22 05:15:17;;;;;;;8.07;5.20;;;;;;;;;;4966418;28;20046;-82
2022/04/22 05:18:03;;;;;;;9.40;5.80;;;;;;;;;;4984566;28;20050;-82
2022/04/22 05:20:48;;;;;;;7.63;5.03;;;;;;;;;;4984114;28;20043;-81
2022/04/22 05:23:33;;;;;;;7.80;5.40;;;;;;;;;;4979392;28;20489;-81
2022/04/22 05:26:25;;;;;;;8.18;4.82;;;;;;;;;;4970907;28;20408;-80
2022/04/22 05:32:38;;;;;;;8.70;3.35;;;;;;;;;;4984459;28;20051;-81
2022/04/22 05:35:34;;;;;;;5.38;3.53;;;;;;;;;;4984218;28;20050;-81
2022/04/22 05:38:24;;;;;;;11.25;4.95;;;;;;;;;;4978077;28;20050;-81
2022/04/22 05:41:10;;;;;;;9.48;4.70;;;;;;;;;;4984089;28;20046;-80
2022/04/22 05:44:10;;;;;;;9.45;3.97;;;;;;;;;;4982810;28;20051;-82
2022/04/22 05:47:10;;;;;;;7.78;3.58;;;;;;;;;;4969478;28;20039;-81
2022/04/22 05:50:06;;;;;;;3.53;2.60;;;;;;;;;;4980077;28;20053;-81
2022/04/22 05:52:52;;;;;;;7.40;3.65;;;;;;;;;;4983623;28;20138;-83
2022/04/22 05:55:45;;;;;;;6.25;3.85;;;;;;;;;;4983582;28;20047;-82
2022/04/22 05:58:33;;;;;;;7.85;4.60;;;;;;;;;;4969747;28;20046;-82
2022/04/22 06:01:18;;;;;;;6.47;3.50;;;;;;;;;;4977035;28;20051;-81
2022/04/22 06:04:04;;;;;;;3.97;2.47;;;;;;;;;;4968859;28;20042;-81
2022/04/22 06:06:52;;;;;;;6.05;3.50;;;;;;;;;;4985191;28;20068;-81
2022/04/22 06:13:00;;;;;;;6.20;3.38;;;;;;;;;;4983838;28;20490;-81
2022/04/22 06:16:50;;;;;;;7.55;3.80;;;;;;;;;;4969158;28;20043;-80
2022/04/22 06:19:47;;;;;;;7.43;3.63;;;;;;;;;;4988889;28;20413;-81
2022/04/22 06:22:35;;;;;;;3.50;2.22;;;;;;;;;;4983507;28;20046;-82
2022/04/22 06:25:28;;;;;;;3.90;2.97;;;;;;;;;;4989659;28;20051;-82
2022/04/22 06:31:54;;;;;;;5.22;2.42;;;;;;;;;;4949551;29;19915;-81
2022/04/22 06:35:06;;;;;;;7.07;4.20;;;;;;;;;;4911740;29;20052;-81
2022/04/22 06:38:07;;;;;;;7.15;3.22;;;;;;;;;;4923357;29;20051;-82
2022/04/22 06:47:27;;;;;;;8.70;4.88;;;;;;;;;;4959927;28;20051;-81
2022/04/22 06:50:50;;;;;;;6.45;3.95;;;;;;;;;;4962021;28;20047;-82
2022/04/22 06:53:54;;;;;;;4.75;3.28;;;;;;;;;;4962426;28;20051;-81
2022/04/22 06:56:53;;;;;;;5.82;2.97;;;;;;;;;;4951172;28;20079;-81
2022/04/22 06:59:39;;;;;;;7.40;3.10;;;;;;;;;;4978730;28;20485;-81
2022/04/22 07:02:32;;;;;;;7.90;4.40;;;;;;;;;;4975083;28;20046;-82
2022/04/22 07:05:30;;;;;;;4.43;3.05;;;;;;;;;;4989554;28;20054;-81
2022/04/22 07:08:31;;;;;;;10.25;4.57;;;;;;;;;;4958447;28;20047;-82
2022/04/22 07:11:46;;;;;;;4.93;3.15;;;;;;;;;;5002075;28;20050;-82
2022/04/22 07:14:35;;;;;;;6.40;4.20;;;;;;;;;;4995371;28;20054;-82
2022/04/22 07:17:26;;;;;;;5.68;3.15;;;;;;;;;;4987042;28;20062;-82
2022/04/22 07:20:18;;;;;;;4.88;2.67;;;;;;;;;;4975101;28;20417;-83
2022/04/22 07:23:12;;;;;;;6.63;4.15;;;;;;;;;;4948975;28;20474;-81
2022/04/22 07:26:01;;;;;;;2.97;2.45;;;;;;;;;;4975489;28;20050;-80
2022/04/22 07:28:56;;;;;;;8.43;3.90;;;;;;;;;;4975744;28;20038;-81
2022/04/22 07:31:48;;;;;;;6.10;3.40;;;;;;;;;;4967864;28;20490;-81
2022/04/22 07:34:39;;;;;;;3.00;2.05;;;;;;;;;;4975163;28;20034;-81
2022/04/22 07:37:25;;;;;;;5.88;3.15;;;;;;;;;;4976635;28;20039;-81
2022/04/22 07:40:16;;;;;;;5.68;3.10;;;;;;;;;;4967698;28;20050;-80
2022/04/22 07:46:46;;;;;;;4.75;2.60;;;;;;;;;;4971661;28;20050;-81
2022/04/22 07:49:42;;;;;;;10.35;5.30;;;;;;;;;;4973167;28;20069;-83
2022/04/22 07:52:44;;;;;;;8.88;5.57;;;;;;;;;;4967893;28;20042;-81
2022/04/22 07:55:48;;;;;;;5.35;3.05;;;;;;;;;;4981943;28;20401;-82
2022/04/22 07:58:38;;;;;;;8.77;4.55;;;;;;;;;;4982759;28;20042;-82
2022/04/22 08:01:37;;;;;;;8.02;3.25;;;;;;;;;;4959092;28;20050;-81
2022/04/22 08:04:24;;;;;;;8.63;4.57;;;;;;;;;;4973066;28;20059;-82
2022/04/22 08:07:09;;;;;;;6.63;3.00;;;;;;;;;;4960810;28;20393;-83
2022/04/22 08:09:57;;;;;;;5.20;3.28;;;;;;;;;;4982354;28;20038;-83
2022/04/22 08:12:42;;;;;;;7.18;3.40;;;;;;;;;;4974985;28;20050;-80
2022/04/22 08:15:32;;;;;;;15.02;3.08;;;;;;;;;;4981121;28;20394;-82
2022/04/22 08:19:06;;;;;;;7.13;3.40;;;;;;;;;;4974980;28;20477;-81
2022/04/22 08:21:54;;;;;;;4.97;2.85;;;;;;;;;;4956867;28;20055;-83
2022/04/22 08:24:43;;;;;;;4.63;2.50;;;;;;;;;;4960726;28;20046;-81
2022/04/22 08:27:33;;;;;;;3.53;2.60;;;;;;;;;;4954025;28;20034;-84
2022/04/22 08:30:28;;;;;;;5.28;2.38;;;;;;;;;;4954165;28;20047;-82
2022/04/22 08:33:14;;;;;;;10.10;3.25;;;;;;;;;;4967942;28;20046;-84
2022/04/22 08:36:04;;;;;;;8.90;3.67;;;;;;;;;;4983937;28;20046;-82
2022/04/22 08:39:08;;;;;;;;;;;;;;;;;;;;;
2022/04/22 08:42:29;;;;;;;17.35;4.82;;;;;;;;;;4977145;28;20405;-82
2022/04/22 08:45:51;;;;;;;11.68;3.10;;;;;;;;;;4987362;28;20042;-82
2022/04/22 08:55:08;;;;;;;5.93;3.00;;;;;;;;;;4900724;29;20049;-82
2022/04/22 08:58:28;;;;;;;3.80;2.13;;;;;;;;;;4915789;29;20077;-82
2022/04/22 09:01:43;;;;;;;11.88;3.35;;;;;;;;;;4869989;29;20061;-83
2022/04/22 09:04:58;;;;;;;6.57;2.63;;;;;;;;;;4883210;29;20049;-81
2022/04/22 09:08:10;;;;;;;7.03;2.72;;;;;;;;;;4892145;29;20052;-81
2022/04/22 09:15:02;;;;;;;7.35;3.05;;;;;;;;;;4790184;30;20051;-84
2022/04/22 09:18:18;;;;;;;3.45;2.55;;;;;;;;;;4806387;29;20417;-82
2022/04/22 09:21:13;;;;;;;10.45;2.50;;;;;;;;;;4837514;29;20054;-83
2022/04/22 09:24:14;;;;;;;4.43;1.90;;;;;;;;;;4843753;29;20057;-83
2022/04/22 09:27:32;;;;;;;10.25;2.58;;;;;;;;;;4987573;28;20050;-82
2022/04/22 09:30:18;;;;;;;5.20;2.47;;;;;;;;;;4946355;28;20046;-84
2022/04/22 09:33:08;;;;;;;4.00;2.30;;;;;;;;;;4976467;28;20038;-81
2022/04/22 09:44:33;;;;;;;6.15;3.10;;;;;;;;;;4926381;29;20043;-83
2022/04/22 09:47:35;;;;;;;3.60;2.60;;;;;;;;;;4928701;29;20044;-80
2022/04/22 09:50:41;;;;;;;6.97;3.00;;;;;;;;;;4940554;28;20401;-82
2022/04/22 09:53:51;;;;;;;5.68;2.85;;;;;;;;;;4977705;28;20486;-82
2022/04/22 09:59:55;;;;;;;5.63;2.45;;;;;;;;;;4964128;28;20138;-82
2022/04/22 10:02:40;;;;;;;6.68;2.60;;;;;;;;;;4982589;28;20042;-84
2022/04/22 10:05:31;;;;;;;5.25;2.10;;;;;;;;;;4969270;28;20043;-85
2022/04/22 10:08:36;;;;;;;4.97;2.05;;;;;;;;;;4988011;28;20054;-82
2022/04/22 10:11:22;;;;;;;4.90;1.98;;;;;;;;;;4982485;28;20477;-81
2022/04/22 10:14:09;;;;;;;8.10;2.58;;;;;;;;;;4968663;28;20050;-83
2022/04/22 10:17:25;;;;;;;4.82;1.95;;;;;;;;;;4943845;28;20079;-84
2022/04/22 10:20:14;;;;;;;5.97;2.47;;;;;;;;;;4979504;28;20046;-82
2022/04/22 10:23:10;;;;;;;7.47;2.60;;;;;;;;;;4967478;28;20062;-81
2022/04/22 10:26:09;;;;;;;10.05;2.75;;;;;;;;;;4965054;28;20051;-82
2022/04/22 10:28:58;;;;;;;11.27;2.90;;;;;;;;;;4966706;28;20409;-80
2022/04/22 10:32:21;;;;;;;12.02;3.08;;;;;;;;;;4965126;28;20039;-81
2022/04/22 10:35:29;;;;;;;4.47;2.55;;;;;;;;;;4969176;28;20046;-80
2022/04/22 10:38:43;;;;;;;9.95;2.28;;;;;;;;;;4954840;28;20043;-84
2022/04/22 10:41:44;;;;;;;6.93;2.33;;;;;;;;;;4947949;28;20038;-80
2022/04/22 10:47:44;;;;;;;7.15;2.90;;;;;;;;;;4955429;28;20050;-85
2022/04/22 10:50:43;;;;;;;;;;;;;;;;;;4982968;28;20043;-82
2022/04/22 10:53:34;;;;;;;11.20;4.38;;;;;;;;;;4982902;28;19914;-81
2022/04/22 10:56:30;;;;;;;5.43;3.28;;;;;;;;;;4974131;28;20042;-83
2022/04/22 10:59:20;;;;;;;7.03;2.88;;;;;;;;;;4969832;28;20034;-81
2022/04/22 11:02:34;;;;;;;3.92;2.10;;;;;;;;;;4974325;28;20490;-83
2022/04/22 11:05:52;;;;;;;6.03;2.30;;;;;;;;;;4961106;28;20043;-81
2022/04/22 11:08:59;;;;;;;6.80;2.80;;;;;;;;;;4961801;28;20042;-81
2022/04/22 11:11:51;;;;;;;3.42;1.70;;;;;;;;;;4982064;28;20042;-83
2022/04/22 11:14:52;;;;;;;8.07;2.40;;;;;;;;;;4966160;28;20046;-81
2022/04/22 11:17:44;;;;;;;13.50;4.30;;;;;;;;;;4984335;28;20042;-82
2022/04/22 11:20:29;;;;;;;6.85;2.70;;;;;;;;;;4981043;28;20046;-79
2022/04/22 11:23:17;;;;;;;5.85;2.60;;;;;;;;;;4980329;28;20058;-82
2022/04/22 11:26:11;;;;;;;6.10;2.42;;;;;;;;;;4971967;28;20046;-85
2022/04/22 11:29:01;;;;;;;7.32;2.25;;;;;;;;;;4992444;28;20341;-84
2022/04/22 11:35:35;;;;;;;6.13;2.50;;;;;;;;;;4986940;28;20054;-80
2022/04/22 11:38:21;;;;;;;6.03;3.25;;;;;;;;;;4992976;28;20068;-82
2022/04/22 11:41:24;;;;;;;5.82;3.28;;;;;;;;;;4993752;28;20038;-81
2022/04/22 11:44:22;;;;;;;11.25;2.65;;;;;;;;;;4977615;28;20060;-83
2022/04/22 11:47:07;;;;;;;11.40;1.63;;;;;;;;;;5002420;28;20390;-81
2022/04/22 11:50:13;;;;;;;2.42;1.83;;;;;;;;;;4996245;28;20042;-79
2022/04/22 11:53:00;;;;;;;9.30;2.78;;;;;;;;;;4993448;28;20047;-82
2022/04/22 11:55:48;;;;;;;8.43;2.83;;;;;;;;;;4975291;28;20046;-84
2022/04/22 11:58:33;;;;;;;18.42;3.50;;;;;;;;;;4979539;28;20055;-81
2022/04/22 12:10:38;;;;;;;9.98;3.65;;;;;;;;;;4977600;28;20039;-81
2022/04/22 12:13:25;;;;;;;12.48;3.00;;;;;;;;;;4983413;28;20050;-80
2022/04/22 12:16:11;;;;;;;10.55;2.90;;;;;;;;;;4963592;28;20050;-80
2022/04/22 12:18:59;;;;;;;10.02;3.03;;;;;;;;;;4975832;28;20042;-82
2022/04/22 12:21:47;;;;;;;13.65;2.72;;;;;;;;;;4984058;28;20038;-81
2022/04/22 12:24:35;;;;;;;15.40;2.97;;;;;;;;;;4974892;28;20038;-83
2022/04/22 12:27:33;;;;;;;8.80;2.42;;;;;;;;;;4974674;28;20043;-80
2022/04/22 12:30:34;;;;;;;7.60;2.45;;;;;;;;;;4955332;28;20058;-82
2022/04/22 12:33:24;;;;;;;11.77;2.38;;;;;;;;;;4987946;28;20042;-82
2022/04/22 12:36:12;;;;;;;10.98;2.92;;;;;;;;;;4996799;28;20038;-83
2022/04/22 12:42:39;;;;;;;22.92;2.97;;;;;;;;;;4959314;28;20054;-83
2022/04/22 12:55:08;;;;;;;10.90;2.28;;;;;;;;;;4991306;28;20046;-86
2022/04/22 12:58:02;;;;;;;6.40;2.13;;;;;;;;;;4974788;28;20035;-84
2022/04/22 13:01:29;;;;;;;9.95;2.80;;;;;;;;;;4977478;28;20039;-85
2022/04/22 13:04:27;;;;;;;10.32;2.53;;;;;;;;;;4974701;28;20046;-84
2022/04/22 13:07:16;;;;;;;13.85;2.63;;;;;;;;;;4974630;28;20042;-84
2022/04/22 13:13:16;;;;;;;20.33;4.65;;;;;;;;;;4992654;28;20186;-85
2022/04/22 13:16:10;;;;;;;11.63;3.78;;;;;;;;;;4962494;28;20058;-84
2022/04/22 13:19:01;;;;;;;16.48;5.03;;;;;;;;;;4987872;28;20470;-83
2022/04/22 13:21:47;;;;;;;14.77;5.45;;;;;;;;;;4966940;28;20051;-84
2022/04/22 13:24:40;;;;;;;11.43;3.65;;;;;;;;;;4974746;28;20047;-85
2022/04/22 13:27:39;;;;;;;16.85;4.32;;;;;;;;;;4974674;28;20054;-85
2022/04/22 13:30:27;;;;;;;19.77;7.38;;;;;;;;;;4969664;28;20046;-86
2022/04/22 13:33:15;;;;;;;17.38;4.57;;;;;;;;;;4961165;28;20039;-86
2022/04/22 13:36:05;;;;;;;9.77;3.00;;;;;;;;;;4991525;28;20501;-82
2022/04/22 13:38:51;;;;;;;16.08;3.10;;;;;;;;;;4995881;28;20042;-84
2022/04/22 13:41:41;;;;;;;15.63;3.13;;;;;;;;;;4972618;28;20043;-85
2022/04/22 13:54:55;;;;;;;14.52;3.58;;;;;;;;;;4978465;28;20042;-82
2022/04/22 13:57:47;;;;;;;15.43;3.13;;;;;;;;;;4985228;28;20047;-84
2022/04/22 14:00:34;;;;;;;17.67;4.50;;;;;;;;;;4980159;28;20058;-81
2022/04/22 14:04:09;;;;;;;15.57;4.78;;;;;;;;;;4988676;28;20050;-85
2022/04/22 14:07:17;;;;;;;12.43;5.60;;;;;;;;;;4999271;28;20398;-82
2022/04/22 14:10:13;;;;;;;16.05;4.03;;;;;;;;;;4987905;28;20039;-80
2022/04/22 14:13:16;;;;;;;16.30;3.85;;;;;;;;;;4964103;28;20046;-81
2022/04/22 14:19:33;;;;;;;17.30;3.17;;;;;;;;;;4968721;28;20055;-82
2022/04/22 14:23:20;;;;;;;16.27;4.47;;;;;;;;;;4971170;28;20397;-81
2022/04/22 14:26:12;;;;;;;16.55;4.47;;;;;;;;;;4972635;28;20385;-84
2022/04/22 14:29:02;;;;;;;27.67;6.35;;;;;;;;;;4986652;28;20039;-83
2022/04/22 14:31:53;;;;;;;;;;;;;;;;;;4978677;28;20049;-84
2022/04/22 14:34:38;;;;;;;9.50;2.70;;;;;;;;;;4966404;28;19917;-82
2022/04/22 14:37:24;;;;;;;11.93;3.33;;;;;;;;;;4981458;28;20410;-82
2022/04/22 14:40:09;;;;;;;8.40;2.30;;;;;;;;;;4967936;28;20035;-81
2022/04/22 14:42:55;;;;;;;16.17;3.20;;;;;;;;;;4966444;28;20051;-82
2022/04/22 14:45:40;;;;;;;12.18;3.63;;;;;;;;;;4978175;28;20050;-81
2022/04/22 14:48:26;;;;;;;14.63;3.45;;;;;;;;;;4980184;28;20043;-84
2022/04/22 14:51:14;;;;;;;14.75;3.38;;;;;;;;;;4973103;28;20042;-84
2022/04/22 14:54:11;;;;;;;15.63;3.80;;;;;;;;;;4979816;28;20050;-83
2022/04/22 14:56:57;;;;;;;10.68;2.90;;;;;;;;;;4985259;28;20042;-86
2022/04/22 14:59:48;;;;;;;10.07;3.05;;;;;;;;;;4967117;28;20046;-83
2022/04/22 15:02:37;;;;;;;12.45;3.10;;;;;;;;;;4963719;28;20031;-84
2022/04/22 15:05:22;;;;;;;14.52;3.67;;;;;;;;;;4960929;28;20054;-84
2022/04/22 15:08:08;;;;;;;10.98;2.58;;;;;;;;;;4984281;28;20034;-82
2022/04/22 15:10:58;;;;;;;17.17;3.47;;;;;;;;;;4957210;28;20055;-82
2022/04/22 15:13:52;;;;;;;12.20;2.80;;;;;;;;;;4967914;28;20509;-81
2022/04/22 15:16:46;;;;;;;20.10;3.20;;;;;;;;;;4968331;28;20046;-82
2022/04/22 15:26:57;;;;;;;22.27;8.88;;;;;;;;;;4987636;28;20054;-86
2022/04/22 15:38:06;;;;;;;17.15;4.55;;;;;;;;;;4881705;29;20537;-85
2022/04/22 15:46:21;;;;;;;28.98;8.70;;;;;;;;;;4873498;29;20036;-83
2022/04/22 15:49:10;;;;;;;21.60;9.70;;;;;;;;;;4926217;28;20402;-84
2022/04/22 15:55:34;;;;;;;36.85;12.57;;;;;;;;;;4956940;29;20043;-81
2022/04/22 15:58:46;;;;;;;22.73;6.65;;;;;;;;;;4947408;28;20047;-81
2022/04/22 16:01:43;;;;;;;20.55;4.20;;;;;;;;;;4947712;28;20051;-81
2022/04/22 16:05:29;;;;;;;;;;;;;;;;;;;;;
2022/04/22 16:08:17;;;;;;;20.27;6.57;;;;;;;;;;4948955;29;20394;-78
2022/04/22 16:18:14;;;;;;;20.75;4.20;;;;;;;;;;4955295;29;20051;-80
2022/04/22 16:21:00;;;;;;;20.30;5.25;;;;;;;;;;4949176;28;20047;-85
2022/04/22 16:23:45;;;;;;;13.82;3.88;;;;;;;;;;4956785;29;20047;-81
2022/04/22 16:26:32;;;;;;;19.02;8.00;;;;;;;;;;4949301;28;20035;-81
2022/04/22 16:29:20;;;;;;;19.55;5.28;;;;;;;;;;4964707;28;20047;-83
2022/04/22 16:32:07;;;;;;;20.17;6.15;;;;;;;;;;4959584;28;20039;-83
2022/04/22 16:34:53;;;;;;;22.92;6.43;;;;;;;;;;4962189;28;20051;-84
2022/04/22 16:37:39;;;;;;;15.73;4.88;;;;;;;;;;4961317;28;20051;-84
2022/04/22 16:40:24;;;;;;;16.10;4.15;;;;;;;;;;4975448;28;20051;-85
2022/04/22 16:43:11;;;;;;;24.85;5.85;;;;;;;;;;4976045;28;20055;-85
2022/04/22 16:45:56;;;;;;;24.33;6.80;;;;;;;;;;4975452;28;20050;-84
2022/04/22 16:48:43;;;;;;;26.35;7.20;;;;;;;;;;4974855;28;20043;-84
2022/04/22 16:51:28;;;;;;;16.52;4.80;;;;;;;;;;4981853;28;20042;-84
2022/04/22 16:54:14;;;;;;;21.23;4.90;;;;;;;;;;4974714;28;20047;-84
2022/04/22 16:57:00;;;;;;;27.33;4.57;;;;;;;;;;4960667;28;20055;-83
2022/04/22 16:59:45;;;;;;;32.25;5.10;;;;;;;;;;4981661;28;20423;-84
2022/04/22 17:02:31;;;;;;;23.40;5.45;;;;;;;;;;4981072;28;20055;-83
2022/04/22 17:05:16;;;;;;;25.65;5.68;;;;;;;;;;4981692;28;20054;-83
2022/04/22 17:08:02;;;;;;;28.83;6.22;;;;;;;;;;4981656;28;20055;-83
2022/04/22 17:10:47;;;;;;;26.77;7.03;;;;;;;;;;4978647;28;20043;-82
2022/04/22 17:13:33;;;;;;;22.73;5.68;;;;;;;;;;4980784;28;20050;-83
2022/04/22 17:22:41;;;;;;;21.73;7.68;;;;;;;;;;4985143;28;20050;-86
2022/04/22 17:25:26;;;;;;;29.00;9.00;;;;;;;;;;4985119;28;20042;-84
2022/04/22 17:28:13;;;;;;;34.55;9.25;;;;;;;;;;4984418;28;20050;-85
2022/04/22 17:30:58;;;;;;;83.45;49.67;;;;;;;;;;4978933;28;20047;-85
2022/04/22 17:33:45;;;;;;;25.83;6.13;;;;;;;;;;4978481;28;20051;-84
2022/04/22 17:36:31;;;;;;;34.90;12.20;;;;;;;;;;4985139;28;20051;-82
2022/04/22 17:39:17;;;;;;;40.38;11.23;;;;;;;;;;4963877;28;20054;-84
2022/04/22 17:42:03;;;;;;;21.58;8.27;;;;;;;;;;4963891;28;20043;-84
2022/04/22 17:44:49;;;;;;;46.28;8.60;;;;;;;;;;4978442;28;20051;-83
2022/04/22 17:47:34;;;;;;;98.25;40.55;;;;;;;;;;4984684;28;20047;-83
2022/04/22 17:50:23;;;;;;;39.90;13.15;;;;;;;;;;4985366;28;20043;-83
2022/04/22 17:53:08;;;;;;;30.17;6.45;;;;;;;;;;4984174;28;20043;-84
2022/04/22 17:55:54;;;;;;;20.40;5.55;;;;;;;;;;4986833;28;20046;-84
2022/04/22 17:58:40;;;;;;;28.67;6.40;;;;;;;;;;4970305;28;20050;-84
2022/04/22 18:01:25;;;;;;;31.20;8.48;;;;;;;;;;4981265;28;20054;-84
2022/04/22 18:04:11;;;;;;;42.13;11.50;;;;;;;;;;4997703;28;20784;-85
2022/04/22 18:06:56;;;;;;;24.77;7.60;;;;;;;;;;5012034;28;20027;-81
2022/04/22 18:09:42;;;;;;;38.25;8.75;;;;;;;;;;5001802;28;20473;-83
2022/04/22 18:12:27;;;;;;;34.92;10.85;;;;;;;;;;4985454;28;20051;-83
2022/04/22 18:18:17;;;;;;;36.97;9.90;;;;;;;;;;4980034;28;20047;-83
2022/04/22 18:21:03;;;;;;;32.30;9.80;;;;;;;;;;4983867;28;20050;-86
2022/04/22 18:23:48;;;;;;;24.30;8.40;;;;;;;;;;4983833;28;20051;-84
2022/04/22 18:26:33;;;;;;;52.15;22.70;;;;;;;;;;4973473;28;20062;-84
2022/04/22 18:29:19;;;;;;;24.75;7.53;;;;;;;;;;4993038;28;20051;-82
2022/04/22 18:32:05;;;;;;;34.10;6.90;;;;;;;;;;4990893;28;20058;-82
2022/04/22 18:34:54;;;;;;;20.05;6.07;;;;;;;;;;4984903;28;20381;-83
2022/04/22 18:37:40;;;;;;;22.52;6.00;;;;;;;;;;4992030;28;20058;-82
2022/04/22 18:40:27;;;;;;;21.60;4.63;;;;;;;;;;4997682;28;20046;-80
2022/04/22 18:43:12;;;;;;;25.85;5.68;;;;;;;;;;5002683;28;20042;-81
2022/04/22 18:45:57;;;;;;;19.67;5.85;;;;;;;;;;5002645;28;20058;-85
2022/04/22 18:48:43;;;;;;;29.92;7.53;;;;;;;;;;5003902;28;20046;-81
2022/04/22 18:51:29;;;;;;;31.15;7.40;;;;;;;;;;5003515;28;20054;-81
2022/04/22 18:54:14;;;;;;;19.73;7.18;;;;;;;;;;5003336;28;20050;-82
2022/04/22 18:57:00;;;;;;;21.27;6.45;;;;;;;;;;4995855;28;20050;-83
2022/04/22 18:59:51;;;;;;;24.52;6.45;;;;;;;;;;5002798;28;20050;-83
2022/04/22 19:02:38;;;;;;;20.23;5.45;;;;;;;;;;4996614;28;20465;-83
2022/04/22 19:05:24;;;;;;;15.80;5.07;;;;;;;;;;4996962;28;20042;-84
2022/04/22 19:08:14;;;;;;;18.52;5.82;;;;;;;;;;4997364;28;20055;-83
2022/04/22 19:11:00;;;;;;;19.88;6.25;;;;;;;;;;5002211;28;20401;-81
2022/04/22 19:13:45;;;;;;;20.23;6.65;;;;;;;;;;4996813;28;20042;-83
2022/04/22 19:16:30;;;;;;;21.92;7.75;;;;;;;;;;4996751;28;20046;-81
2022/04/22 19:19:15;;;;;;;22.35;8.05;;;;;;;;;;5003026;28;20054;-82
2022/04/22 19:22:01;;;;;;;22.52;8.70;;;;;;;;;;4989611;28;20043;-84
2022/04/22 19:24:46;;;;;;;39.83;13.85;;;;;;;;;;4971880;28;20502;-82
2022/04/22 19:27:32;;;;;;;32.05;11.15;;;;;;;;;;4992370;28;20042;-82
2022/04/22 19:30:18;;;;;;;24.58;8.75;;;;;;;;;;4987598;28;20042;-81
2022/04/22 19:33:04;;;;;;;22.98;8.77;;;;;;;;;;4993333;28;20051;-83
2022/04/22 19:35:50;;;;;;;27.98;8.68;;;;;;;;;;4992854;28;20488;-83
2022/04/22 19:41:41;;;;;;;39.70;16.30;;;;;;;;;;4997104;28;20118;-84
2022/04/22 19:44:26;;;;;;;31.63;11.05;;;;;;;;;;4992104;28;20489;-82
2022/04/22 19:47:12;;;;;;;35.13;12.43;;;;;;;;;;4981699;28;20472;-83
2022/04/22 19:49:57;;;;;;;36.58;13.13;;;;;;;;;;4994566;28;20398;-82
2022/04/22 19:52:45;;;;;;;33.85;9.70;;;;;;;;;;4977530;28;20046;-85